createdAt,value
2019-01-09T00:04:29.873Z,3.39
2019-01-09T00:09:32.049Z,3.41
2019-01-09T00:14:35.085Z,3.38
2019-01-09T00:19:37.719Z,3.40
2019-01-09T00:24:40.211Z,3.40
2019-01-09T00:29:43.306Z,3.37
2019-01-09T00:34:45.605Z,3.41
2019-01-09T00:39:48.585Z,3.42
2019-01-09T00:44:51.559Z,3.41
2019-01-09T00:49:54.248Z,3.41
2019-01-09T00:54:56.830Z,3.42
2019-01-09T00:59:59.583Z,3.40
2019-01-09T01:05:30.007Z,3.36
2019-01-09T01:11:18.862Z,3.38
2019-01-09T01:17:17.827Z,3.37
2019-01-09T01:23:11.238Z,3.35
2019-01-09T01:29:13.023Z,3.36
2019-01-09T01:35:37.802Z,3.36
2019-01-09T01:41:00.655Z,3.36
2019-01-09T01:46:44.066Z,3.33
2019-01-09T01:53:02.604Z,3.31
2019-01-09T01:59:42.517Z,3.30
2019-01-09T02:05:49.857Z,3.30
2019-01-09T02:12:01.341Z,3.32
2019-01-09T02:17:51.590Z,3.28
2019-01-09T03:56:19.417Z,3.22
2019-01-09T04:01:22.090Z,3.23
2019-01-09T04:06:25.245Z,3.26
2019-01-09T04:11:28.198Z,3.28
2019-01-09T04:16:30.694Z,3.26
2019-01-09T04:21:32.864Z,3.24
2019-01-09T04:26:35.704Z,3.22
2019-01-09T04:31:38.897Z,3.24
2019-01-09T04:36:41.384Z,3.22
2019-01-09T04:41:44.033Z,3.25
2019-01-09T04:46:47.911Z,3.26
2019-01-09T04:51:50.552Z,3.23
2019-01-09T04:56:52.862Z,3.21
2019-01-09T05:01:55.709Z,3.24
2019-01-09T05:07:00.691Z,3.21
2019-01-09T05:12:02.982Z,3.20
2019-01-09T05:17:05.194Z,3.18
2019-01-09T05:22:07.396Z,3.14
2019-01-09T05:27:09.568Z,3.15
2019-01-09T05:32:12.182Z,3.17
2019-01-09T05:37:14.896Z,3.21
2019-01-09T05:42:17.560Z,3.18
2019-01-09T05:47:20.434Z,3.18
2019-01-09T05:52:23.605Z,3.17
2019-01-09T05:57:25.825Z,3.12
2019-01-09T06:02:28.517Z,3.11
2019-01-09T06:07:31.074Z,3.10
2019-01-09T06:12:33.972Z,3.09
2019-01-09T06:17:36.961Z,3.09
2019-01-09T06:22:40.034Z,3.06
2019-01-09T06:27:42.615Z,3.07
2019-01-09T06:32:44.964Z,3.05
2019-01-09T06:37:47.096Z,3.05
2019-01-09T06:42:49.880Z,3.01
2019-01-09T06:47:52.438Z,2.99
2019-01-09T06:52:54.759Z,2.98
2019-01-09T06:57:57.512Z,2.93
2019-01-09T07:02:59.897Z,2.91
2019-01-09T07:08:02.360Z,2.91
2019-01-09T07:13:04.623Z,2.92
2019-01-09T07:18:06.804Z,2.91
2019-01-09T07:23:09.474Z,2.93
2019-01-09T07:28:12.017Z,2.94
2019-01-09T07:33:14.659Z,2.89
2019-01-09T07:38:17.395Z,2.85
2019-01-09T07:43:19.780Z,2.82
2019-01-09T07:48:22.064Z,2.79
2019-01-09T07:53:24.741Z,2.79
2019-01-09T07:58:27.267Z,2.78
2019-01-09T08:03:29.579Z,2.81
2019-01-09T08:08:31.778Z,2.80
2019-01-09T08:13:33.930Z,2.79
2019-01-09T08:18:36.599Z,2.75
2019-01-09T08:23:38.760Z,2.74
2019-01-09T08:28:41.682Z,2.76
2019-01-09T08:33:44.112Z,2.73
2019-01-09T08:38:47.297Z,2.70
2019-01-09T08:43:49.809Z,2.65
2019-01-09T08:48:52.968Z,2.63
2019-01-09T08:53:55.199Z,2.68
2019-01-09T08:58:57.939Z,2.68
2019-01-09T09:04:00.291Z,2.68
2019-01-09T09:09:04.887Z,2.69
2019-01-09T09:14:08.145Z,2.68
2019-01-09T09:19:11.863Z,2.68
2019-01-09T09:24:14.617Z,2.73
2019-01-09T09:29:16.885Z,2.73
2019-01-09T09:34:19.609Z,2.75
2019-01-09T09:39:21.846Z,2.78
2019-01-09T09:44:24.551Z,2.85
2019-01-09T09:49:27.377Z,2.90
2019-01-09T09:54:29.892Z,2.95
2019-01-09T09:59:32.336Z,2.98
2019-01-09T10:04:35.028Z,3.01
2019-01-09T10:09:37.465Z,3.02
2019-01-09T10:14:40.294Z,3.02
2019-01-09T10:19:42.971Z,3.06
2019-01-09T10:24:45.257Z,3.10
2019-01-09T10:29:47.383Z,3.12
2019-01-09T10:34:49.784Z,3.15
2019-01-09T10:39:52.317Z,3.19
2019-01-09T10:44:54.487Z,3.19
2019-01-09T10:49:56.679Z,3.25
2019-01-09T10:54:59.136Z,3.23
2019-01-09T11:00:01.952Z,3.26
2019-01-09T11:05:05.988Z,3.27
2019-01-09T11:10:09.096Z,3.29
2019-01-09T11:15:11.966Z,3.32
2019-01-09T11:20:17.298Z,3.35
2019-01-09T11:25:25.815Z,3.37
2019-01-09T11:30:28.118Z,3.41
2019-01-09T11:35:30.504Z,3.48
2019-01-09T11:40:32.900Z,3.52
2019-01-09T11:45:35.859Z,3.56
2019-01-09T11:50:38.022Z,3.60
2019-01-09T11:55:40.230Z,3.59
2019-01-09T12:00:42.846Z,3.59
2019-01-09T12:05:45.339Z,3.62
2019-01-09T12:10:48.217Z,3.58
2019-01-09T12:15:50.471Z,3.57
2019-01-09T12:20:52.909Z,3.55
2019-01-09T12:25:55.544Z,3.50
2019-01-09T12:30:57.745Z,3.48
2019-01-09T12:36:00.048Z,3.43
2019-01-09T12:41:02.335Z,3.39
2019-01-09T12:46:04.669Z,3.38
2019-01-09T12:51:06.906Z,3.40
2019-01-09T12:56:09.073Z,3.40
2019-01-09T13:01:11.523Z,3.43
2019-01-09T13:06:13.823Z,3.45
2019-01-09T13:11:16.272Z,3.48
2019-01-09T13:16:19.023Z,3.49
2019-01-09T13:21:22.231Z,3.49
2019-01-09T13:26:24.408Z,3.52
2019-01-09T13:31:26.629Z,3.51
2019-01-09T13:36:29.553Z,3.55
2019-01-09T13:41:31.990Z,3.56
2019-01-09T13:46:34.701Z,3.58
2019-01-09T13:51:37.531Z,3.59
2019-01-09T13:56:39.896Z,3.61
2019-01-09T14:01:42.079Z,3.64
2019-01-09T14:06:44.316Z,3.65
2019-01-09T14:11:46.994Z,3.64
2019-01-09T14:16:49.229Z,3.64
2019-01-09T14:21:51.863Z,3.66
2019-01-09T14:26:54.517Z,3.67
2019-01-09T14:31:57.115Z,3.62
2019-01-09T14:36:59.746Z,3.63
2019-01-09T14:42:02.057Z,3.62
2019-01-09T14:47:04.399Z,3.60
2019-01-09T14:52:07.271Z,3.58
2019-01-09T14:57:09.406Z,3.56
2019-01-09T15:02:11.556Z,3.52
2019-01-09T15:07:15.450Z,3.43
2019-01-09T15:12:18.431Z,3.40
2019-01-09T15:17:20.548Z,3.34
2019-01-09T15:22:22.918Z,3.33
2019-01-09T15:27:25.304Z,3.31
2019-01-09T15:32:27.602Z,3.31
2019-01-09T15:37:29.779Z,3.26
2019-01-09T15:42:32.239Z,3.23
2019-01-09T15:47:34.537Z,3.24
2019-01-09T15:52:36.769Z,3.26
2019-01-09T15:57:40.102Z,3.27
2019-01-09T16:02:42.495Z,3.26
2019-01-09T16:07:45.424Z,3.28
2019-01-09T16:12:48.857Z,3.30
2019-01-09T16:17:51.794Z,3.31
2019-01-09T16:22:54.523Z,3.29
2019-01-09T16:27:56.818Z,3.22
2019-01-09T16:32:59.124Z,3.19
2019-01-09T16:38:01.734Z,3.17
2019-01-09T16:43:04.448Z,3.13
2019-01-09T16:48:06.765Z,3.12
2019-01-09T16:53:08.927Z,3.14
2019-01-09T16:58:11.083Z,3.14
2019-01-09T17:03:13.237Z,3.12
2019-01-09T17:08:15.465Z,3.12
2019-01-09T17:13:17.738Z,3.14
2019-01-09T17:18:20.797Z,3.13
2019-01-09T17:23:22.976Z,3.14
2019-01-09T17:28:25.640Z,3.17
2019-01-09T17:33:28.312Z,3.20
2019-01-09T17:38:30.733Z,3.19
2019-01-09T17:43:33.379Z,3.15
2019-01-09T17:48:35.555Z,3.14
2019-01-09T17:53:38.299Z,3.15
2019-01-09T17:58:40.710Z,3.14
2019-01-09T18:03:43.506Z,3.14
2019-01-09T18:08:46.280Z,3.13
2019-01-09T18:13:48.973Z,3.13
2019-01-09T18:18:51.255Z,3.19
2019-01-09T18:23:53.752Z,3.16
2019-01-09T18:28:56.263Z,3.13
2019-01-09T18:34:29.790Z,3.17
2019-01-09T18:40:19.165Z,3.17
2019-01-09T18:45:42.976Z,3.20
2019-01-09T18:51:02.869Z,3.21
2019-01-09T18:56:08.197Z,3.22
2019-01-09T19:01:10.630Z,3.21
2019-01-09T19:06:13.375Z,3.20
2019-01-09T19:11:15.746Z,3.24
2019-01-09T19:16:18.249Z,3.26
2019-01-09T19:21:20.461Z,3.28
2019-01-09T19:26:22.716Z,3.33
2019-01-09T19:31:25.654Z,3.38
2019-01-09T19:36:27.816Z,3.41
2019-01-09T19:41:30.563Z,3.44
2019-01-09T19:46:32.739Z,3.50
2019-01-09T19:51:35.615Z,3.51
2019-01-09T19:56:37.827Z,3.52
2019-01-09T20:01:40.425Z,3.54
2019-01-09T20:06:43.845Z,3.58
2019-01-09T20:11:46.308Z,3.62
2019-01-09T20:16:48.896Z,3.65
2019-01-09T20:21:51.676Z,3.68
2019-01-09T20:26:54.151Z,3.72
2019-01-09T20:31:56.887Z,3.76
2019-01-09T20:36:59.095Z,3.78
2019-01-09T20:42:01.430Z,3.79
2019-01-09T20:47:04.048Z,3.80
2019-01-09T20:52:07.953Z,3.84
2019-01-09T20:57:10.828Z,3.86
2019-01-09T21:02:13.879Z,3.89
2019-01-09T21:07:16.250Z,3.89
2019-01-09T21:12:18.574Z,3.90
2019-01-09T21:17:20.744Z,3.90
2019-01-09T21:22:22.946Z,3.91
2019-01-09T21:27:25.450Z,3.96
2019-01-09T21:32:27.788Z,3.96
2019-01-09T21:37:30.185Z,3.95
2019-01-09T21:42:32.486Z,3.96
2019-01-09T21:47:35.335Z,3.93
2019-01-09T21:52:38.195Z,3.88
2019-01-09T21:57:41.299Z,3.85
2019-01-09T22:02:43.707Z,3.85
2019-01-09T22:07:47.082Z,3.84
2019-01-09T22:12:49.537Z,3.82
2019-01-09T22:17:52.702Z,3.78
2019-01-09T22:22:55.257Z,3.74
2019-01-09T22:27:58.338Z,3.70
2019-01-09T22:33:00.840Z,3.67
2019-01-09T22:38:03.553Z,3.67
2019-01-09T22:43:06.391Z,3.65
2019-01-09T22:48:08.639Z,3.63
2019-01-09T22:53:11.370Z,3.59
2019-01-09T22:58:14.045Z,3.57
2019-01-09T23:03:16.718Z,3.53
2019-01-09T23:08:19.550Z,3.51
2019-01-09T23:13:22.549Z,3.49
2019-01-09T23:18:24.892Z,3.50
2019-01-09T23:23:27.590Z,3.50
2019-01-09T23:28:30.357Z,3.49
2019-01-09T23:33:32.975Z,3.49
2019-01-09T23:38:35.586Z,3.47
2019-01-09T23:43:38.065Z,3.46
2019-01-09T23:48:40.459Z,3.44
2019-01-09T23:53:44.335Z,3.39
2019-01-09T23:58:46.778Z,3.38
